Terminal Aerodrome Forecast
Issued by NWS

Home | Current Version | Previous Version | Text Only | Print | Product List | Glossary On
Versions: 1 2 3 4 5 6 7 8 9 10 11 12 13
000
FTUS43 KGRB 241144
TAFAUW
TAF
KAUW 241144Z 2412/2512 12011G17KT P6SM BKN200
     FM241800 15016G24KT P6SM BKN150
     FM250200 14012KT P6SM SCT100 BKN140 WS012/17040KT=

USA.gov is the U.S. government's official web portal to all federal, state and local government web resources and services.